Time;durP1;ratioP1;P1;durP2;ratioP2;P2;SDS_P1;SDS_P2;PMS_P1;PMS_P2;Temp;Humidity;BMP_temperature;BMP_pressure;BME280_temperature;BME280_humidity;BME280_pressure;Samples;Min_cycle;Max_cycle;Signal;HPM_P1;HPM_P2
2021/01/20 00:02:22;;;;;;;49.83;29.48;;;;;;;-3.61;61.84;102282.13;1737520;82;21180;-46
2021/01/20 00:04:51;;;;;;;55.23;30.25;;;;;;;-3.58;62.07;102282.29;1738988;82;21133;-46
2021/01/20 00:07:19;;;;;;;54.80;30.88;;;;;;;-3.58;62.41;102283.56;1737494;82;21593;-45
2021/01/20 00:09:47;;;;;;;48.73;28.12;;;;;;;-3.58;62.63;102288.66;1750172;82;21616;-46
2021/01/20 00:12:16;;;;;;;53.63;31.25;;;;;;;-3.57;62.93;102289.54;1739024;82;21597;-46
2021/01/20 00:14:45;;;;;;;55.55;32.53;;;;;;;-3.62;63.11;102290.53;1740032;82;21098;-46
2021/01/20 00:17:14;;;;;;;53.48;31.27;;;;;;;-3.68;63.37;102282.54;1744771;82;21573;-46
2021/01/20 00:19:43;;;;;;;59.45;31.90;;;;;;;-3.68;63.67;102286.35;1734757;82;21172;-46
2021/01/20 00:22:15;;;;;;;53.52;31.85;;;;;;;-3.67;63.74;102289.78;1739941;82;21200;-46
2021/01/20 00:24:43;;;;;;;;;;;;;;;-3.67;63.60;102281.73;1741390;81;21294;-44
2021/01/20 00:27:12;;;;;;;53.20;28.30;;;;;;;-3.66;63.53;102284.78;1735782;82;20140;-46
2021/01/20 00:29:40;;;;;;;56.23;29.55;;;;;;;-3.68;63.47;102286.73;1742167;82;21137;-46
2021/01/20 00:32:09;;;;;;;51.40;30.82;;;;;;;-3.70;63.55;102291.74;1735235;82;21152;-46
2021/01/20 00:34:40;;;;;;;57.55;30.62;;;;;;;-3.68;63.46;102295.25;1739513;82;21162;-46
2021/01/20 00:37:08;;;;;;;52.43;31.50;;;;;;;-3.64;63.45;102292.11;1738457;82;21176;-46
2021/01/20 00:39:37;;;;;;;54.70;30.15;;;;;;;-3.61;63.53;102286.33;1739378;82;21164;-45
2021/01/20 00:42:05;;;;;;;56.83;33.53;;;;;;;-3.60;63.61;102282.98;1738001;82;21136;-45
2021/01/20 00:44:33;;;;;;;50.00;29.18;;;;;;;-3.60;63.62;102283.87;1744931;82;21533;-46
2021/01/20 00:47:02;;;;;;;53.92;31.17;;;;;;;-3.58;63.80;102289.03;1738274;82;21636;-46
2021/01/20 00:49:30;;;;;;;57.08;32.03;;;;;;;-3.59;63.86;102284.37;1736666;82;21184;-45
2021/01/20 00:51:59;;;;;;;56.65;31.82;;;;;;;-3.54;63.95;102285.88;1738047;82;21604;-46
2021/01/20 00:54:27;;;;;;;57.85;31.75;;;;;;;-3.54;64.02;102284.22;1738193;82;21135;-45
2021/01/20 00:56:55;;;;;;;56.58;31.57;;;;;;;-3.49;64.16;102285.77;1738660;82;21166;-45
2021/01/20 00:59:24;;;;;;;59.00;31.70;;;;;;;-3.44;64.28;102290.72;1712249;82;21306;-46
2021/01/20 01:01:57;;;;;;;55.33;32.33;;;;;;;-3.38;64.27;102294.50;1740811;82;21180;-45
2021/01/20 01:04:24;;;;;;;53.40;31.55;;;;;;;-3.40;64.26;102300.32;1741875;82;21152;-45
2021/01/20 01:06:53;;;;;;;57.40;30.92;;;;;;;-3.43;64.51;102294.65;1733329;82;21144;-46
2021/01/20 01:09:21;;;;;;;53.08;31.33;;;;;;;-3.45;64.80;102288.59;1744852;82;21173;-46
2021/01/20 01:11:50;;;;;;;58.45;31.95;;;;;;;-3.46;65.04;102281.73;1732240;82;21169;-46
2021/01/20 01:14:18;;;;;;;55.10;31.15;;;;;;;-3.48;65.15;102276.06;1742741;82;21212;-45
2021/01/20 01:16:48;;;;;;;53.17;31.17;;;;;;;-3.49;65.39;102271.39;1733284;82;21164;-45
2021/01/20 01:19:18;;;;;;;52.23;31.27;;;;;;;-3.45;65.47;102273.33;1733267;82;21588;-44
2021/01/20 01:21:47;;;;;;;54.80;31.60;;;;;;;-3.41;65.47;102265.08;1742275;82;21117;-44
2021/01/20 01:24:16;;;;;;;55.12;31.85;;;;;;;-3.33;65.40;102265.13;1740434;81;21537;-45
2021/01/20 01:26:46;;;;;;;54.27;30.10;;;;;;;-3.24;65.19;102268.60;1740622;82;21711;-45
2021/01/20 01:29:14;;;;;;;54.27;31.02;;;;;;;-3.19;65.11;102269.72;1736552;82;21604;-45
2021/01/20 01:31:44;;;;;;;61.53;32.73;;;;;;;-3.15;65.15;102264.44;1734764;82;21303;-45
2021/01/20 01:34:12;;;;;;;56.42;32.48;;;;;;;-3.11;65.12;102263.81;1744757;82;21585;-46
2021/01/20 01:36:41;;;;;;;58.78;32.75;;;;;;;-3.04;65.09;102268.45;1732303;82;21197;-45
2021/01/20 01:39:11;;;;;;;62.30;31.90;;;;;;;-3.00;65.01;102263.63;1739952;82;21186;-45
2021/01/20 01:41:43;;;;;;;55.38;31.00;;;;;;;-2.97;64.91;102258.72;1735764;82;21144;-45
2021/01/20 01:44:11;;;;;;;54.08;33.05;;;;;;;-2.94;64.89;102257.98;1682371;84;21249;-46
2021/01/20 01:46:49;;;;;;;52.50;34.65;;;;;;;-2.86;64.90;102256.74;1795296;79;28001;-45
2021/01/20 01:49:19;;;;;;;53.40;33.48;;;;;;;-2.83;64.74;102251.83;1771148;80;21120;-45
2021/01/20 01:51:48;;;;;;;59.40;34.13;;;;;;;-2.73;64.55;102254.09;1774725;80;21151;-45
2021/01/20 01:54:35;;;;;;;58.70;33.53;;;;;;;-2.67;64.59;102255.70;1775123;80;21163;-46
2021/01/20 01:57:05;;;;;;;52.53;32.65;;;;;;;-2.58;64.53;102260.05;1770268;80;21159;-46
2021/01/20 01:59:35;;;;;;;55.52;32.33;;;;;;;-2.52;64.50;102257.83;1766866;80;21195;-46
2021/01/20 02:02:05;;;;;;;60.95;34.67;;;;;;;-2.47;64.41;102256.39;1761385;80;21131;-46
2021/01/20 02:04:35;;;;;;;53.95;31.62;;;;;;;-2.43;64.10;102250.66;1770935;80;21136;-47
2021/01/20 02:07:05;;;;;;;54.03;31.15;;;;;;;-2.40;64.14;102248.30;1770022;80;21539;-46
2021/01/20 02:09:35;;;;;;;46.17;26.77;;;;;;;-2.37;64.27;102250.13;1772601;80;21586;-46
2021/01/20 02:12:12;;;;;;;60.98;34.30;;;;;;;-2.36;64.29;102247.66;1773240;80;21140;-47
2021/01/20 02:15:05;;;;;;;59.00;35.17;;;;;;;-2.31;64.24;102244.09;1719111;83;21306;-46
2021/01/20 02:18:04;;;;;;;64.20;37.55;;;;;;;-2.32;64.12;102243.20;1720595;83;21159;-45
2021/01/20 02:21:06;;;;;;;76.92;41.02;;;;;;;-2.22;64.13;102238.19;1768862;79;23086;-45
2021/01/20 02:23:41;;;;;;;66.17;36.90;;;;;;;-2.22;64.00;102233.09;1738400;82;21525;-45
2021/01/20 02:26:41;;;;;;;75.60;40.03;;;;;;;-2.19;63.86;102235.42;1739941;82;21199;-45
2021/01/20 02:29:55;;;;;;;67.85;39.30;;;;;;;-2.19;63.36;102229.05;1721220;82;21303;-45
2021/01/20 02:32:35;;;;;;;59.42;33.05;;;;;;;-2.15;63.17;102230.96;1771554;79;23079;-45
2021/01/20 02:35:04;;;;;;;;;;;;;;;-2.18;63.11;102238.43;1748053;82;21337;-45
2021/01/20 02:37:33;;;;;;;54.95;30.37;;;;;;;-2.15;62.97;102230.96;1737213;82;20388;-45
2021/01/20 02:40:05;;;;;;;53.07;30.80;;;;;;;-2.14;62.80;102231.42;1727714;82;21581;-45
2021/01/20 02:42:47;;;;;;;48.08;28.50;;;;;;;-2.08;62.59;102225.79;1814616;77;23068;-45
2021/01/20 02:45:17;;;;;;;42.67;25.10;;;;;;;-2.13;62.50;102229.37;1823643;78;21144;-45
2021/01/20 02:47:48;;;;;;;43.60;25.68;;;;;;;-2.11;62.50;102225.61;1813250;78;21730;-45
2021/01/20 02:50:18;;;;;;;43.90;24.70;;;;;;;-2.10;62.37;102233.76;1821097;78;21168;-45
2021/01/20 02:53:10;;;;;;;36.35;23.02;;;;;;;-2.07;62.48;102237.73;1780820;80;21172;-45
2021/01/20 02:55:59;;;;;;;35.28;21.62;;;;;;;-1.98;62.30;102237.80;1816639;78;23512;-44
2021/01/20 02:58:46;;;;;;;37.48;23.05;;;;;;;-2.02;62.09;102240.98;1821895;78;21163;-45
2021/01/20 03:01:21;;;;;;;35.58;23.30;;;;;;;-1.97;62.10;102239.95;1785893;80;21140;-45
2021/01/20 03:03:49;;;;;;;32.90;20.45;;;;;;;-1.93;61.88;102236.77;1745107;81;21132;-45
2021/01/20 03:06:17;;;;;;;38.35;23.00;;;;;;;-1.88;61.65;102236.62;1756177;81;21120;-45
2021/01/20 03:08:46;;;;;;;37.67;21.48;;;;;;;-1.85;61.53;102232.54;1759529;81;21184;-45
2021/01/20 03:11:14;;;;;;;38.42;21.57;;;;;;;-1.79;61.31;102223.92;1763041;81;21282;-44
2021/01/20 03:13:43;;;;;;;30.52;19.02;;;;;;;-1.75;61.26;102223.28;1759607;81;21176;-44
2021/01/20 03:16:11;;;;;;;30.80;19.95;;;;;;;-1.69;61.40;102217.63;1760508;81;21694;-44
2021/01/20 03:18:39;;;;;;;32.48;19.65;;;;;;;-1.65;61.37;102206.35;1768214;81;21191;-43
2021/01/20 03:21:07;;;;;;;31.80;18.62;;;;;;;-1.57;61.29;102214.81;1762538;81;21192;-44
2021/01/20 03:23:36;;;;;;;29.07;19.23;;;;;;;-1.53;61.28;102208.66;1759705;81;21125;-44
2021/01/20 03:26:04;;;;;;;31.45;18.60;;;;;;;-1.45;61.27;102207.75;1753478;81;21152;-45
2021/01/20 03:28:32;;;;;;;29.75;17.85;;;;;;;-1.40;61.27;102205.89;1759322;81;21168;-45
2021/01/20 03:31:00;;;;;;;31.02;18.70;;;;;;;-1.33;61.12;102207.08;1761182;81;21140;-45
2021/01/20 03:33:28;;;;;;;31.42;19.07;;;;;;;-1.27;60.97;102204.82;1759547;81;21109;-44
2021/01/20 03:35:57;;;;;;;30.85;19.23;;;;;;;-1.21;60.84;102205.12;1770354;81;21220;-45
2021/01/20 03:38:25;;;;;;;28.67;18.55;;;;;;;-1.14;60.77;102214.84;1764230;81;21175;-45
2021/01/20 03:40:53;;;;;;;27.98;17.52;;;;;;;-1.09;60.63;102209.14;1759796;81;21159;-45
2021/01/20 03:43:21;;;;;;;29.48;18.30;;;;;;;-1.05;60.55;102209.77;1763583;81;21330;-44
2021/01/20 03:45:49;;;;;;;32.58;19.17;;;;;;;-1.00;60.53;102213.82;1759029;81;21198;-45
2021/01/20 03:48:17;;;;;;;27.00;17.62;;;;;;;-0.96;60.46;102205.50;1757676;81;21164;-44
2021/01/20 03:50:46;;;;;;;29.57;18.05;;;;;;;-0.94;60.44;102208.61;1757847;81;21167;-45
2021/01/20 03:53:15;;;;;;;28.07;17.67;;;;;;;-0.90;60.43;102205.78;1763733;81;21176;-44
2021/01/20 03:55:44;;;;;;;28.57;18.45;;;;;;;-0.86;60.56;102207.68;1755282;81;21148;-45
2021/01/20 03:58:13;;;;;;;31.07;18.75;;;;;;;-0.84;60.71;102204.41;1769987;81;21576;-44
2021/01/20 04:00:42;;;;;;;29.15;17.48;;;;;;;-0.79;60.81;102212.29;1754363;82;21145;-45
2021/01/20 04:03:10;;;;;;;29.63;19.27;;;;;;;-0.75;60.94;102214.19;1763091;81;21587;-45
2021/01/20 04:05:43;;;;;;;31.87;18.17;;;;;;;-0.73;60.97;102211.30;1752986;82;21172;-46
2021/01/20 04:08:12;;;;;;;31.35;18.75;;;;;;;-0.68;61.07;102214.08;1762903;81;21157;-44
2021/01/20 04:10:42;;;;;;;28.87;18.55;;;;;;;-0.65;61.12;102207.41;1757588;81;21136;-44
2021/01/20 04:13:11;;;;;;;28.12;18.07;;;;;;;-0.61;61.24;102209.70;1763788;81;21140;-46
2021/01/20 04:15:39;;;;;;;28.80;17.92;;;;;;;-0.56;61.32;102216.80;1763823;81;21576;-46
2021/01/20 04:18:08;;;;;;;30.82;18.52;;;;;;;-0.53;61.47;102213.09;1766202;81;21144;-46
2021/01/20 04:20:36;;;;;;;28.12;17.75;;;;;;;-0.52;61.47;102208.46;1752536;82;21294;-46
2021/01/20 04:23:04;;;;;;;35.63;19.60;;;;;;;-0.48;61.63;102210.35;1762455;81;21285;-46
2021/01/20 04:25:33;;;;;;;24.72;17.00;;;;;;;-0.46;61.70;102206.19;1754442;81;21297;-46
2021/01/20 04:28:01;;;;;;;30.55;18.23;;;;;;;-0.44;61.87;102211.36;1760856;81;21163;-46
2021/01/20 04:30:30;;;;;;;31.95;19.20;;;;;;;-0.42;61.87;102213.19;1754093;81;21318;-46
2021/01/20 04:32:58;;;;;;;26.23;18.12;;;;;;;-0.39;62.00;102208.20;1769087;81;21159;-46
2021/01/20 04:35:27;;;;;;;29.27;18.27;;;;;;;-0.34;62.07;102207.13;1753902;82;21216;-47
2021/01/20 04:37:56;;;;;;;28.05;17.70;;;;;;;-0.30;62.12;102213.73;1769327;81;21739;-46
2021/01/20 04:40:24;;;;;;;29.27;18.00;;;;;;;-0.25;62.12;102203.72;1753973;82;21299;-46
2021/01/20 04:42:52;;;;;;;27.93;18.10;;;;;;;-0.22;62.08;102207.28;1750601;81;21223;-46
2021/01/20 04:45:22;;;;;;;25.70;17.82;;;;;;;-0.16;62.03;102206.67;1752900;81;21133;-46
2021/01/20 04:47:53;;;;;;;29.45;17.95;;;;;;;-0.13;62.06;102206.42;1752337;81;21121;-46
2021/01/20 04:50:21;;;;;;;25.20;15.85;;;;;;;-0.09;62.02;102212.14;1754459;82;21264;-46
2021/01/20 04:52:50;;;;;;;25.60;17.02;;;;;;;-0.05;62.09;102206.35;1762385;81;21324;-46
2021/01/20 04:55:19;;;;;;;25.10;16.85;;;;;;;-0.02;62.00;102212.86;1753849;82;21171;-46
2021/01/20 04:57:48;;;;;;;29.32;17.92;;;;;;;0.02;62.18;102210.45;1767434;81;21171;-46
2021/01/20 05:00:18;;;;;;;26.60;17.23;;;;;;;0.07;62.25;102217.91;1757609;81;21171;-46
2021/01/20 05:02:47;;;;;;;26.12;17.70;;;;;;;0.10;62.20;102215.50;1754269;81;21148;-46
2021/01/20 05:05:16;;;;;;;25.48;16.87;;;;;;;0.13;62.28;102215.62;1754182;82;21149;-47
2021/01/20 05:07:44;;;;;;;28.05;17.12;;;;;;;0.14;62.35;102216.11;1768564;81;21345;-46
2021/01/20 05:10:13;;;;;;;26.52;16.73;;;;;;;0.17;62.28;102216.22;1754259;82;21184;-47
2021/01/20 05:12:43;;;;;;;25.40;16.17;;;;;;;0.19;62.15;102219.72;1759687;81;21164;-46
2021/01/20 05:15:16;;;;;;;23.75;16.17;;;;;;;0.22;62.19;102219.47;1755884;81;21160;-46
2021/01/20 05:18:01;;;;;;;25.57;16.93;;;;;;;0.23;62.19;102217.80;1748144;82;21160;-46
2021/01/20 05:20:32;;;;;;;26.42;16.35;;;;;;;0.26;62.17;102230.70;1757285;81;21139;-46
2021/01/20 05:23:03;;;;;;;25.57;16.65;;;;;;;0.29;62.24;102232.13;1753589;82;21160;-46
2021/01/20 05:25:38;;;;;;;24.47;16.70;;;;;;;0.32;62.15;102237.37;1732308;82;21179;-45
2021/01/20 05:28:24;;;;;;;24.35;15.75;;;;;;;0.34;62.12;102230.63;1725479;83;21148;-47
2021/01/20 05:31:01;;;;;;;22.95;14.78;;;;;;;0.41;62.18;102228.81;1825961;77;22151;-45
2021/01/20 05:33:39;;;;;;;25.37;16.45;;;;;;;0.39;62.31;102238.96;1811525;78;21149;-45
2021/01/20 05:36:12;;;;;;;25.55;16.12;;;;;;;0.41;62.31;102240.33;1811782;78;21114;-45
2021/01/20 05:38:48;;;;;;;22.85;15.58;;;;;;;0.43;62.43;102238.71;1810893;78;21114;-45
2021/01/20 05:41:28;;;;;;;22.20;15.58;;;;;;;0.51;62.52;102238.63;1771587;79;23062;-45
2021/01/20 05:44:12;;;;;;;29.00;16.05;;;;;;;0.48;62.46;102238.48;1715277;82;21305;-45
2021/01/20 05:46:43;;;;;;;24.10;14.70;;;;;;;0.51;62.54;102234.79;1712676;83;21631;-45
2021/01/20 05:49:24;;;;;;;21.93;15.53;;;;;;;0.52;62.63;102230.12;1714837;83;21162;-45
2021/01/20 05:52:00;;;;;;;22.98;15.35;;;;;;;0.60;62.69;102236.04;1815262;79;23307;-45
2021/01/20 05:54:36;;;;;;;23.75;15.90;;;;;;;0.57;62.72;102236.33;1777637;80;21319;-45
2021/01/20 05:57:20;;;;;;;22.20;15.60;;;;;;;0.59;62.80;102233.42;1785880;80;21152;-45
2021/01/20 05:59:50;;;;;;;25.90;17.10;;;;;;;0.62;62.85;102236.09;1787726;80;21147;-45
2021/01/20 06:02:19;;;;;;;21.00;14.25;;;;;;;0.64;62.90;102237.03;1783729;80;21164;-45
2021/01/20 06:04:49;;;;;;;24.95;16.30;;;;;;;0.68;62.96;102241.07;1778567;80;21573;-45
2021/01/20 06:07:17;;;;;;;22.35;15.60;;;;;;;0.71;62.78;102233.53;1776832;80;21269;-45
2021/01/20 06:09:47;;;;;;;22.73;15.08;;;;;;;0.73;62.93;102237.03;1776783;80;21302;-46
2021/01/20 06:12:16;;;;;;;22.37;15.08;;;;;;;0.77;63.10;102244.42;1776657;80;21132;-45
2021/01/20 06:14:46;;;;;;;25.88;15.38;;;;;;;0.81;63.34;102246.30;1785661;80;21521;-45
2021/01/20 06:17:41;;;;;;;21.37;13.55;;;;;;;0.86;63.45;102240.97;1783740;80;21156;-45
2021/01/20 06:20:11;;;;;;;22.10;15.03;;;;;;;0.92;63.30;102243.78;1776937;80;21274;-44
2021/01/20 06:22:47;;;;;;;20.35;13.85;;;;;;;1.01;63.22;102249.27;1771482;80;21168;-44
2021/01/20 06:25:27;;;;;;;21.73;14.15;;;;;;;1.07;63.00;102245.66;1710985;81;21187;-44
2021/01/20 06:28:08;;;;;;;19.20;14.00;;;;;;;1.14;62.76;102245.50;1708769;81;21223;-44
2021/01/20 06:30:49;;;;;;;24.37;15.05;;;;;;;1.19;62.69;102244.02;1706482;81;21294;-45
2021/01/20 06:33:18;;;;;;;19.20;12.78;;;;;;;1.23;62.73;102249.33;1708443;81;21210;-44
2021/01/20 06:35:49;;;;;;;21.30;14.65;;;;;;;1.27;62.52;102249.03;1708731;81;21172;-47
2021/01/20 06:38:39;;;;;;;20.77;13.45;;;;;;;1.30;62.32;102250.02;1707889;81;21180;-45
2021/01/20 06:41:12;;;;;;;19.10;14.15;;;;;;;1.34;62.27;102257.02;1708717;81;21581;-45
2021/01/20 06:43:43;;;;;;;18.77;13.45;;;;;;;1.41;62.25;102255.17;1708320;81;21176;-45
2021/01/20 06:46:27;;;;;;;20.48;13.45;;;;;;;1.48;62.17;102252.01;1708502;81;21736;-45
2021/01/20 06:49:04;;;;;;;20.40;13.68;;;;;;;1.55;61.97;102247.59;1844056;77;23030;-45
2021/01/20 06:51:34;;;;;;;18.65;12.05;;;;;;;1.55;61.77;102255.30;1798734;78;21600;-45
2021/01/20 06:54:11;;;;;;;17.77;12.53;;;;;;;1.60;61.43;102247.37;1821743;78;21309;-46
2021/01/20 06:56:48;;;;;;;16.35;11.57;;;;;;;1.65;60.87;102245.84;1818326;78;21121;-46
2021/01/20 06:59:32;;;;;;;18.07;11.75;;;;;;;1.72;60.35;102253.37;1804898;78;21125;-45
2021/01/20 07:02:10;;;;;;;17.73;12.05;;;;;;;1.76;59.46;102255.63;1745580;81;21132;-46
2021/01/20 07:04:53;;;;;;;17.15;11.48;;;;;;;1.82;59.03;102255.86;1749487;81;21156;-46
2021/01/20 07:07:53;;;;;;;18.25;11.83;;;;;;;1.87;58.70;102255.64;1759112;81;21207;-45
2021/01/20 07:10:30;;;;;;;15.83;10.60;;;;;;;1.92;58.40;102254.09;1760037;81;21148;-46
2021/01/20 07:13:14;;;;;;;15.68;11.73;;;;;;;1.96;58.23;102265.83;1758505;81;21168;-45
2021/01/20 07:15:44;;;;;;;13.50;10.43;;;;;;;2.02;58.10;102256.22;1758372;81;21187;-46
2021/01/20 07:18:15;;;;;;;14.78;10.98;;;;;;;2.07;58.01;102257.23;1764742;81;21281;-44
2021/01/20 07:20:44;;;;;;;14.30;10.18;;;;;;;2.14;57.58;102267.77;1757838;81;21179;-45
2021/01/20 07:23:12;;;;;;;13.08;10.18;;;;;;;2.20;57.08;102262.01;1754023;81;21132;-45
2021/01/20 07:25:41;;;;;;;15.18;11.08;;;;;;;2.25;56.72;102264.31;1763311;81;21144;-45
2021/01/20 07:28:10;;;;;;;13.32;9.90;;;;;;;2.31;56.56;102265.81;1759479;81;21176;-44
2021/01/20 07:30:39;;;;;;;13.85;10.75;;;;;;;2.32;56.37;102266.30;1787111;80;21179;-45
2021/01/20 07:33:20;;;;;;;13.83;10.40;;;;;;;2.37;56.16;102268.62;1744924;81;21750;-45
2021/01/20 07:35:49;;;;;;;14.45;9.80;;;;;;;2.40;56.03;102265.75;1739670;82;21612;-44
2021/01/20 07:38:18;;;;;;;13.83;10.25;;;;;;;2.48;56.09;102263.44;1739120;82;21166;-46
2021/01/20 07:40:46;;;;;;;13.80;9.75;;;;;;;2.54;56.08;102258.51;1726858;82;21156;-44
2021/01/20 07:43:22;;;;;;;14.10;10.10;;;;;;;2.60;56.05;102261.28;1739336;82;21365;-47
2021/01/20 07:45:51;;;;;;;14.80;11.00;;;;;;;2.68;56.04;102266.27;1739451;82;21191;-44
2021/01/20 07:48:29;;;;;;;12.30;9.58;;;;;;;2.74;55.90;102268.20;1725605;82;21306;-44
2021/01/20 07:50:58;;;;;;;15.72;10.78;;;;;;;2.79;55.80;102269.21;1716308;83;21151;-45
2021/01/20 07:53:26;;;;;;;14.00;10.35;;;;;;;2.84;55.59;102271.13;1712069;83;21174;-44
2021/01/20 07:55:55;;;;;;;15.70;10.80;;;;;;;2.87;55.46;102267.36;1726534;83;21159;-44
2021/01/20 07:58:29;;;;;;;12.95;10.30;;;;;;;2.91;55.46;102274.35;1714466;83;21167;-44
2021/01/20 08:00:58;;;;;;;15.30;10.23;;;;;;;2.93;55.14;102275.28;1713453;83;21211;-45
2021/01/20 08:03:33;;;;;;;12.55;10.08;;;;;;;2.98;55.10;102276.32;1714944;83;21358;-44
2021/01/20 08:06:06;;;;;;;14.40;10.40;;;;;;;3.02;54.92;102279.45;1712621;83;21212;-44
2021/01/20 08:08:32;;;;;;;15.05;10.00;;;;;;;3.05;54.54;102279.97;1713876;83;21637;-45
2021/01/20 08:11:01;;;;;;;14.80;11.50;;;;;;;3.10;54.40;102281.86;1708805;83;21188;-45
2021/01/20 08:13:30;;;;;;;14.45;10.82;;;;;;;3.14;54.57;102288.84;1713119;83;21143;-47
2021/01/20 08:15:58;;;;;;;21.10;13.53;;;;;;;3.18;54.77;102280.41;1724519;83;21302;-46
2021/01/20 08:18:28;;;;;;;17.23;12.53;;;;;;;3.25;54.74;102273.77;1714286;83;21604;-47
2021/01/20 08:20:57;;;;;;;17.67;13.18;;;;;;;3.30;54.71;102271.80;1712813;83;21160;-47
2021/01/20 08:23:47;;;;;;;20.57;14.10;;;;;;;3.35;54.58;102269.77;1714850;83;21215;-46
2021/01/20 08:26:16;;;;;;;17.82;13.43;;;;;;;3.41;54.43;102272.53;1708408;83;21765;-46
2021/01/20 08:29:12;;;;;;;17.02;13.35;;;;;;;3.47;54.32;102277.87;1713983;83;21167;-45
2021/01/20 08:31:46;;;;;;;20.37;12.93;;;;;;;3.58;54.17;102271.37;1769080;79;24142;-45
2021/01/20 08:34:23;;;;;;;17.95;13.58;;;;;;;3.57;54.07;102268.31;1732560;82;21144;-45
2021/01/20 08:39:39;;;;;;;21.35;14.45;;;;;;;3.67;53.96;102261.36;1851670;77;23051;-46
2021/01/20 08:42:36;;;;;;;21.70;14.38;;;;;;;3.66;53.95;102264.75;1816868;78;21156;-46
2021/01/20 08:45:24;;;;;;;22.15;13.60;;;;;;;3.68;54.09;102271.70;1748263;81;21136;-45
2021/01/20 08:48:08;;;;;;;20.88;14.70;;;;;;;3.73;54.05;102271.84;1764594;81;21175;-45
2021/01/20 08:50:44;;;;;;;18.55;13.90;;;;;;;3.77;54.03;102269.38;1753356;81;21585;-45
2021/01/20 08:53:14;;;;;;;21.33;14.93;;;;;;;3.80;54.04;102267.31;1756498;81;21185;-45
2021/01/20 08:55:55;;;;;;;22.75;14.47;;;;;;;3.83;53.99;102267.42;1759685;81;21184;-45
2021/01/20 08:58:29;;;;;;;20.37;14.60;;;;;;;3.85;54.01;102267.05;1754761;81;21164;-45
2021/01/20 09:01:09;;;;;;;22.42;14.45;;;;;;;3.88;53.94;102260.69;1759541;81;21883;-45
2021/01/20 09:03:38;;;;;;;21.07;15.20;;;;;;;3.89;53.83;102258.18;1772756;80;21569;-45
2021/01/20 09:06:16;;;;;;;23.70;14.55;;;;;;;3.90;53.83;102257.74;1761378;81;21164;-45
2021/01/20 09:08:44;;;;;;;19.05;14.90;;;;;;;3.91;53.93;102263.37;1757895;81;21144;-45
2021/01/20 09:11:12;;;;;;;22.17;15.30;;;;;;;3.93;54.01;102256.16;1767978;81;21281;-45
2021/01/20 09:13:41;;;;;;;24.80;15.35;;;;;;;3.94;54.15;102254.42;1759855;81;21189;-45
2021/01/20 09:16:09;;;;;;;25.45;17.10;;;;;;;3.95;54.28;102253.61;1751989;81;21294;-45
2021/01/20 09:18:38;;;;;;;25.95;17.37;;;;;;;4.00;54.37;102249.45;1757640;81;21144;-45
2021/01/20 09:21:07;;;;;;;23.77;17.23;;;;;;;4.02;54.54;102245.21;1765090;81;21147;-46
2021/01/20 09:23:35;;;;;;;23.52;16.52;;;;;;;4.04;54.55;102247.01;1761238;81;21148;-44
2021/01/20 09:26:04;;;;;;;22.85;15.85;;;;;;;4.07;54.53;102238.50;1759773;81;21211;-44
2021/01/20 09:28:32;;;;;;;23.32;16.30;;;;;;;4.11;54.56;102236.47;1761254;81;21294;-47
2021/01/20 09:31:01;;;;;;;23.52;15.83;;;;;;;4.13;54.54;102237.38;1759853;81;21156;-46
2021/01/20 09:33:30;;;;;;;20.45;15.95;;;;;;;4.16;54.59;102239.18;1757865;81;21120;-46
2021/01/20 09:36:00;;;;;;;20.85;15.30;;;;;;;4.18;54.67;102238.80;1757733;81;21156;-46
2021/01/20 09:38:28;;;;;;;20.32;14.65;;;;;;;4.17;54.70;102232.77;1755755;81;21173;-46
2021/01/20 09:40:56;;;;;;;24.00;16.02;;;;;;;4.17;54.75;102230.20;1746816;82;21173;-46
2021/01/20 09:43:26;;;;;;;19.70;14.80;;;;;;;4.17;54.84;102228.91;1739977;82;21159;-47
2021/01/20 09:45:54;;;;;;;20.82;15.20;;;;;;;4.15;54.83;102222.84;1747318;82;21605;-46
2021/01/20 09:48:22;;;;;;;19.73;15.43;;;;;;;4.16;54.89;102228.47;1747334;82;21291;-46
2021/01/20 09:50:51;;;;;;;21.75;15.88;;;;;;;4.15;55.00;102224.13;1746288;82;21291;-46
2021/01/20 09:53:20;;;;;;;23.27;15.25;;;;;;;4.16;55.05;102227.18;1746399;81;21600;-46
2021/01/20 09:55:48;;;;;;;23.80;16.32;;;;;;;4.17;55.16;102230.20;1746554;82;21291;-46
2021/01/20 09:58:16;;;;;;;19.90;15.65;;;;;;;4.16;55.21;102220.74;1746358;82;21573;-46
2021/01/20 10:00:45;;;;;;;20.12;14.93;;;;;;;4.18;55.21;102221.66;1746125;82;21158;-46
2021/01/20 10:03:13;;;;;;;22.80;16.65;;;;;;;4.18;55.30;102221.66;1720503;83;21646;-46
2021/01/20 10:05:45;;;;;;;47.73;28.95;;;;;;;4.18;55.44;102222.94;1740603;82;21160;-46
2021/01/20 10:08:13;;;;;;;34.33;23.20;;;;;;;4.17;55.96;102214.73;1728731;81;21283;-44
2021/01/20 10:10:41;;;;;;;67.75;39.58;;;;;;;4.17;56.18;102216.44;1742015;82;21287;-47
2021/01/20 10:13:10;;;;;;;59.33;37.80;;;;;;;4.16;56.37;102213.02;1733576;83;21203;-47
2021/01/20 10:15:39;;;;;;;67.50;43.00;;;;;;;4.11;56.92;102215.86;1743486;82;21184;-47
2021/01/20 10:18:08;;;;;;;76.92;45.35;;;;;;;4.02;57.58;102215.59;1731295;83;21179;-46
2021/01/20 10:20:37;;;;;;;72.72;42.70;;;;;;;3.92;58.08;102208.04;1746203;82;21491;-44
2021/01/20 10:23:10;;;;;;;68.47;41.42;;;;;;;3.86;58.35;102211.73;1733382;83;21128;-47
2021/01/20 10:25:38;;;;;;;;;;;;;;;3.81;58.67;102200.84;1747791;82;21319;-44
2021/01/20 10:28:07;;;;;;;55.50;35.88;;;;;;;3.76;58.94;102207.55;1741430;82;20173;-44
2021/01/20 10:30:36;;;;;;;60.20;38.98;;;;;;;3.70;59.42;102200.54;1719965;83;21151;-44
2021/01/20 10:33:05;;;;;;;61.77;39.80;;;;;;;3.64;59.89;102187.90;1740670;82;21319;-45
2021/01/20 10:35:34;;;;;;;58.17;38.33;;;;;;;3.62;60.21;102192.13;1740949;82;21193;-45
2021/01/20 10:38:02;;;;;;;58.50;39.45;;;;;;;3.62;60.31;102189.56;1741761;82;21225;-44
2021/01/20 10:40:31;;;;;;;47.23;33.95;;;;;;;3.61;60.08;102182.65;1744102;82;21161;-45
2021/01/20 10:42:59;;;;;;;49.95;34.83;;;;;;;3.57;59.92;102182.09;1740335;81;21199;-47
2021/01/20 10:45:27;;;;;;;51.48;33.88;;;;;;;3.51;59.99;102175.48;1707988;83;21131;-47
2021/01/20 10:47:58;;;;;;;51.28;34.25;;;;;;;3.48;60.21;102181.84;1739464;82;21610;-46
2021/01/20 10:50:26;;;;;;;45.03;31.62;;;;;;;3.45;60.31;102184.31;1726592;83;21143;-46
2021/01/20 10:52:55;;;;;;;48.63;31.70;;;;;;;3.42;60.28;102184.24;1739564;82;21141;-46
2021/01/20 10:55:23;;;;;;;48.28;30.27;;;;;;;3.35;60.20;102177.16;1720154;83;21552;-46
2021/01/20 10:57:52;;;;;;;44.25;29.87;;;;;;;3.26;60.09;102173.48;1735762;82;21279;-46
2021/01/20 11:00:22;;;;;;;44.03;29.98;;;;;;;3.19;60.02;102172.82;1725846;83;21147;-46
2021/01/20 11:02:50;;;;;;;53.85;33.95;;;;;;;3.04;60.37;102168.52;1743177;82;21153;-46
2021/01/20 11:05:19;;;;;;;49.70;32.58;;;;;;;2.96;60.96;102175.13;1733303;83;21186;-47
2021/01/20 11:07:47;;;;;;;48.80;33.30;;;;;;;2.94;61.48;102172.91;1746286;82;21201;-46
2021/01/20 11:10:16;;;;;;;55.00;34.15;;;;;;;2.95;61.78;102163.08;1722014;83;21194;-46
2021/01/20 11:12:46;;;;;;;51.13;32.88;;;;;;;2.98;61.98;102156.76;1741004;82;21160;-46
2021/01/20 11:15:16;;;;;;;50.05;33.45;;;;;;;3.01;62.16;102158.56;1741283;82;21125;-47
2021/01/20 11:17:44;;;;;;;53.55;36.55;;;;;;;3.07;62.38;102159.59;1743552;82;21125;-46
2021/01/20 11:20:14;;;;;;;53.98;35.08;;;;;;;3.11;62.65;102160.14;1720209;83;21590;-45
2021/01/20 11:22:43;;;;;;;66.50;39.78;;;;;;;3.15;62.61;102158.13;1739848;82;21168;-47
2021/01/20 11:25:12;;;;;;;57.45;35.58;;;;;;;3.18;62.70;102156.06;1720116;83;21154;-44
2021/01/20 11:27:40;;;;;;;56.15;33.85;;;;;;;3.20;62.59;102156.58;1738855;82;21153;-47
2021/01/20 11:30:11;;;;;;;48.25;31.45;;;;;;;3.25;62.56;102153.75;1740902;82;21315;-44
2021/01/20 11:32:39;;;;;;;46.73;31.87;;;;;;;3.32;62.20;102160.36;1720298;83;21183;-44
2021/01/20 11:35:08;;;;;;;50.73;34.03;;;;;;;3.33;61.95;102159.52;1743392;82;21184;-45
2021/01/20 11:37:36;;;;;;;49.18;32.53;;;;;;;3.35;61.85;102156.58;1721960;83;21316;-44
2021/01/20 11:40:06;;;;;;;45.20;30.57;;;;;;;3.36;61.76;102150.62;1740768;82;21291;-47